Terminal Aerodrome Forecast
Issued by NWS

Home | Current Version | Previous Version | Text Only | Print | Product List | Glossary On
Versions: 1 2 3 4 5 6 7 8 9 10 11 12 13 14 15 16 17 18 19 20 21
000
FTUS46 KSGX 011100
TAFSNA
TAF
KSNA 011120Z 0112/0212 VRB03KT P6SM SKC
      TEMPO 0112/0114 3SM BR
     FM011500 23007KT P6SM SKC
     FM020300 VRB03KT 3SM BR SCT005
     FM020900 VRB03KT 1SM BR SCT003=

USA.gov is the U.S. government's official web portal to all federal, state and local government web resources and services.